Time;durP1;ratioP1;P1;durP2;ratioP2;P2;SDS_P1;SDS_P2;PMS_P1;PMS_P2;Temp;Humidity;BMP_temperature;BMP_pressure;BME280_temperature;BME280_humidity;BME280_pressure;Samples;Min_cycle;Max_cycle;Signal;HPM_P1;HPM_P2
2023/03/11 00:01:00;;;;;;;1.80;1.60;;;-0.30;99.90;;;;;;5157480;27;20071;-82
2023/03/11 00:03:27;;;;;;;6.38;1.73;;;-0.20;99.90;;;;;;5139568;27;20034;-82
2023/03/11 00:05:54;;;;;;;5.53;1.85;;;0.70;99.90;;;;;;5122003;27;20428;-83
2023/03/11 00:08:21;;;;;;;;;;;1.60;99.90;;;;;;5139788;27;20042;-80
2023/03/11 00:10:50;;;;;;;3.22;1.70;;;-0.10;99.90;;;;;;5157256;27;19926;-83
2023/03/11 00:13:16;;;;;;;4.93;1.88;;;-0.40;99.90;;;;;;5121913;27;20047;-81
2023/03/11 00:15:44;;;;;;;3.65;1.83;;;-0.40;99.90;;;;;;5139562;27;20150;-83
2023/03/11 00:18:10;;;;;;;5.35;1.73;;;-0.40;99.90;;;;;;5138935;27;20038;-81
2023/03/11 00:20:38;;;;;;;4.47;2.00;;;-0.40;99.90;;;;;;5122089;27;20093;-82
2023/03/11 00:23:05;;;;;;;5.97;1.88;;;-0.40;99.90;;;;;;5139117;27;20039;-83
2023/03/11 00:25:32;;;;;;;4.20;1.98;;;0.30;99.90;;;;;;5157267;27;20041;-81
2023/03/11 00:27:58;;;;;;;3.22;1.65;;;-0.30;99.90;;;;;;5121837;27;20138;-82
2023/03/11 00:30:25;;;;;;;2.95;1.80;;;-0.30;99.90;;;;;;5157156;27;20075;-82
2023/03/11 00:32:51;;;;;;;;;;;-0.20;99.90;;;;;;5122103;27;20129;-82
2023/03/11 00:35:21;;;;;;;7.30;2.22;;;0.30;99.90;;;;;;5138522;27;19926;-81
2023/03/11 00:37:47;;;;;;;3.45;2.00;;;-0.20;99.90;;;;;;5121543;27;20062;-81
2023/03/11 00:40:16;;;;;;;8.25;3.45;;;0.90;99.90;;;;;;5121550;27;20078;-80
2023/03/11 00:42:41;;;;;;;7.22;2.05;;;-0.20;99.90;;;;;;5138631;27;20035;-82
2023/03/11 00:45:07;;;;;;;5.15;1.98;;;0.10;99.90;;;;;;5121961;27;20492;-84
2023/03/11 00:47:33;;;;;;;4.78;1.92;;;-0.20;99.90;;;;;;5156758;27;20045;-78
2023/03/11 00:49:59;;;;;;;6.82;2.30;;;-0.10;99.90;;;;;;5138384;27;20050;-82
2023/03/11 00:52:24;;;;;;;2.95;1.73;;;0.40;99.90;;;;;;5121354;27;20477;-80
2023/03/11 00:54:50;;;;;;;8.45;2.22;;;-0.10;99.90;;;;;;5121305;27;20405;-78
2023/03/11 00:57:15;;;;;;;3.08;2.10;;;-0.10;99.90;;;;;;5156532;27;20053;-80
2023/03/11 00:59:41;;;;;;;4.90;1.80;;;1.30;99.90;;;;;;5138067;27;20524;-81
2023/03/11 01:02:07;;;;;;;5.32;1.92;;;-0.10;99.90;;;;;;5138201;27;20034;-79
2023/03/11 01:04:32;;;;;;;7.82;2.22;;;-0.10;99.90;;;;;;5138082;27;20447;-83
2023/03/11 01:06:58;;;;;;;6.95;2.00;;;-0.10;99.90;;;;;;5129405;27;20042;-81
2023/03/11 01:09:23;;;;;;;5.68;2.05;;;-0.10;99.90;;;;;;5158217;27;20035;-82
2023/03/11 01:11:50;;;;;;;4.60;1.98;;;-0.10;99.90;;;;;;5139713;27;20045;-82
2023/03/11 01:14:16;;;;;;;9.63;2.20;;;-0.10;99.90;;;;;;5158310;27;20057;-81
2023/03/11 01:16:42;;;;;;;7.67;1.90;;;-0.10;99.90;;;;;;5158005;27;20035;-82
2023/03/11 01:19:07;;;;;;;9.05;1.90;;;-0.10;99.90;;;;;;5174480;27;20301;-82
2023/03/11 01:21:33;;;;;;;4.88;2.10;;;-0.10;99.90;;;;;;5135841;27;20043;-79
2023/03/11 01:23:59;;;;;;;7.38;2.28;;;-0.20;99.90;;;;;;5156569;27;20462;-82
2023/03/11 01:26:24;;;;;;;10.40;2.10;;;-0.40;99.90;;;;;;5138041;27;20520;-82
2023/03/11 01:28:50;;;;;;;7.00;2.00;;;-0.20;99.90;;;;;;5138178;27;20039;-82
2023/03/11 01:31:15;;;;;;;5.03;2.10;;;0.10;99.90;;;;;;5138888;27;20095;-78
2023/03/11 01:33:41;;;;;;;4.05;1.92;;;-0.20;99.90;;;;;;5138032;27;20041;-80
2023/03/11 01:36:07;;;;;;;5.78;2.50;;;-0.20;99.90;;;;;;5138636;27;20050;-80
2023/03/11 01:38:33;;;;;;;3.28;1.88;;;-0.20;99.90;;;;;;5137350;27;20046;-80
2023/03/11 01:40:58;;;;;;;9.25;1.80;;;2.20;99.90;;;;;;5120779;27;20050;-78
2023/03/11 01:43:45;;;;;;;3.60;1.88;;;0.60;99.90;;;;;;5156533;27;20039;-79
2023/03/11 01:46:20;;;;;;;4.88;2.13;;;-0.20;99.90;;;;;;5138301;27;20034;-80
2023/03/11 01:48:48;;;;;;;5.60;1.90;;;-0.20;99.90;;;;;;5156548;27;20126;-79
2023/03/11 01:51:18;;;;;;;7.43;1.85;;;1.00;99.90;;;;;;5137537;27;20046;-80
2023/03/11 01:53:44;;;;;;;3.58;1.80;;;-0.20;99.90;;;;;;5137491;27;20134;-81
2023/03/11 01:56:10;;;;;;;5.97;1.90;;;1.20;99.90;;;;;;5137424;27;20039;-81
2023/03/11 01:58:39;;;;;;;4.90;2.10;;;-0.20;99.90;;;;;;5137569;27;20359;-79
2023/03/11 02:01:06;;;;;;;4.63;1.80;;;-0.20;99.90;;;;;;5156116;27;20530;-81
2023/03/11 02:03:35;;;;;;;3.78;1.95;;;-0.20;99.90;;;;;;5137822;27;20039;-83
2023/03/11 02:06:05;;;;;;;6.18;2.28;;;-0.30;99.90;;;;;;5120951;27;20039;-79
2023/03/11 02:08:35;;;;;;;2.28;1.60;;;-0.30;99.90;;;;;;5120243;27;20098;-81
2023/03/11 02:11:04;;;;;;;5.72;2.03;;;-0.30;99.90;;;;;;5138569;27;20039;-80
2023/03/11 02:13:33;;;;;;;3.83;1.60;;;-0.30;99.90;;;;;;5126766;27;20047;-82
2023/03/11 02:16:00;;;;;;;4.47;2.33;;;-0.30;99.90;;;;;;5162255;27;20409;-81
2023/03/11 02:18:26;;;;;;;5.53;1.90;;;-0.20;99.90;;;;;;5162238;27;20053;-81
2023/03/11 02:21:14;;;;;;;2.15;1.70;;;-0.30;99.90;;;;;;5143780;27;20039;-82
2023/03/11 02:24:03;;;;;;;4.63;1.80;;;-0.30;99.90;;;;;;5162367;27;20045;-81
2023/03/11 02:26:29;;;;;;;6.38;2.00;;;-0.30;99.90;;;;;;5143977;27;20370;-80
2023/03/11 02:28:56;;;;;;;9.18;2.42;;;-0.30;99.90;;;;;;5143966;27;20041;-80
2023/03/11 02:31:23;;;;;;;3.40;1.83;;;-0.30;99.90;;;;;;5126997;27;20167;-80
2023/03/11 02:33:51;;;;;;;4.75;2.42;;;-0.40;99.90;;;;;;5143981;27;20077;-82
2023/03/11 02:36:41;;;;;;;3.67;1.70;;;-0.30;99.90;;;;;;5144246;27;20046;-81
2023/03/11 02:39:07;;;;;;;4.95;1.63;;;-0.30;99.90;;;;;;5144040;27;20134;-79
2023/03/11 02:41:37;;;;;;;6.55;1.83;;;-0.30;99.90;;;;;;5161986;27;20047;-80
2023/03/11 02:44:06;;;;;;;3.53;1.70;;;-0.10;99.90;;;;;;5161984;27;20042;-79
2023/03/11 02:46:33;;;;;;;3.25;1.73;;;-0.20;99.90;;;;;;5161572;27;20490;-79
2023/03/11 02:48:59;;;;;;;7.03;1.95;;;-0.30;99.90;;;;;;5161982;27;20095;-79
2023/03/11 02:51:24;;;;;;;4.00;2.00;;;-0.30;99.90;;;;;;5161615;27;20047;-82
2023/03/11 02:53:56;;;;;;;3.55;1.80;;;2.10;99.90;;;;;;5181109;27;20106;-80
2023/03/11 02:56:21;;;;;;;2.78;1.70;;;-0.40;99.90;;;;;;5180546;27;20487;-82
2023/03/11 02:58:47;;;;;;;2.97;1.63;;;-0.40;99.90;;;;;;5164038;27;20043;-80
2023/03/11 03:01:13;;;;;;;3.25;1.90;;;-0.50;99.90;;;;;;5180183;27;20034;-80
2023/03/11 03:03:38;;;;;;;4.10;1.90;;;-0.40;99.90;;;;;;5182804;27;20082;-81
2023/03/11 03:06:04;;;;;;;5.20;1.88;;;-0.40;99.90;;;;;;5145043;27;20034;-80
2023/03/11 03:08:30;;;;;;;5.88;2.25;;;-0.50;99.90;;;;;;5166386;27;20082;-81
2023/03/11 03:10:56;;;;;;;2.25;1.60;;;-0.50;99.90;;;;;;5162127;27;20047;-79
2023/03/11 03:13:21;;;;;;;4.50;1.80;;;-0.10;99.90;;;;;;5162594;27;20050;-79
2023/03/11 03:15:47;;;;;;;3.08;1.65;;;-0.70;99.90;;;;;;5162218;27;20420;-82
2023/03/11 03:18:13;;;;;;;2.47;1.70;;;-0.70;99.90;;;;;;5161479;27;20049;-82
2023/03/11 03:20:38;;;;;;;3.28;1.98;;;-0.80;99.90;;;;;;5126658;27;20091;-79
2023/03/11 03:23:04;;;;;;;3.38;1.77;;;-0.60;99.90;;;;;;5158917;27;20122;-81
2023/03/11 03:25:29;;;;;;;3.25;1.70;;;-1.00;99.90;;;;;;5139887;27;20043;-81
2023/03/11 03:27:55;;;;;;;4.47;1.60;;;-0.90;99.90;;;;;;5140318;27;20046;-81
2023/03/11 03:30:20;;;;;;;8.10;1.63;;;-1.10;99.90;;;;;;5158856;27;20049;-82
2023/03/11 03:32:46;;;;;;;4.93;1.70;;;-1.20;99.90;;;;;;5140077;27;20130;-81
2023/03/11 03:35:12;;;;;;;4.80;1.60;;;-1.20;99.90;;;;;;5140039;27;20054;-81
2023/03/11 03:37:38;;;;;;;3.33;2.20;;;-1.30;99.90;;;;;;5139739;27;20039;-79
2023/03/11 03:40:08;;;;;;;2.45;1.83;;;-0.20;99.90;;;;;;5159744;27;20081;-80
2023/03/11 03:42:37;;;;;;;3.40;1.70;;;-1.30;99.90;;;;;;5159246;27;20546;-79
2023/03/11 03:45:06;;;;;;;5.88;1.90;;;-1.30;99.90;;;;;;5158977;27;20039;-80
2023/03/11 03:47:33;;;;;;;4.22;1.60;;;-1.30;99.90;;;;;;5140346;27;20134;-82
2023/03/11 03:49:59;;;;;;;3.60;1.73;;;-1.30;99.90;;;;;;5158608;27;20039;-81
2023/03/11 03:52:24;;;;;;;3.08;1.65;;;-1.40;99.90;;;;;;5158816;27;20482;-78
2023/03/11 03:54:50;;;;;;;4.82;1.60;;;-1.40;99.90;;;;;;5139609;27;20039;-80
2023/03/11 03:57:16;;;;;;;3.50;1.80;;;-0.40;99.90;;;;;;5140562;27;20130;-80
2023/03/11 03:59:42;;;;;;;4.73;2.10;;;-1.60;99.90;;;;;;5139660;27;20042;-78
2023/03/11 04:02:07;;;;;;;4.38;1.90;;;-1.70;99.90;;;;;;5158197;27;20280;-81
2023/03/11 04:04:33;;;;;;;3.75;2.17;;;-1.70;99.90;;;;;;5158109;27;20072;-81
2023/03/11 04:06:59;;;;;;;4.18;1.80;;;-1.00;99.90;;;;;;5158079;27;20034;-79
2023/03/11 04:09:24;;;;;;;3.33;2.27;;;-1.80;99.90;;;;;;5157527;27;20114;-80
2023/03/11 04:11:50;;;;;;;2.72;1.55;;;-1.80;99.90;;;;;;5139779;27;20531;-80
2023/03/11 04:14:16;;;;;;;5.22;1.77;;;-1.80;99.90;;;;;;5157160;27;20072;-83
2023/03/11 04:16:41;;;;;;;6.50;1.80;;;-1.60;99.90;;;;;;5157459;27;20047;-79
2023/03/11 04:19:07;;;;;;;2.25;1.85;;;-1.90;99.90;;;;;;5139458;27;20074;-82
2023/03/11 04:21:33;;;;;;;5.47;1.90;;;-2.00;99.90;;;;;;5139419;27;20042;-81
2023/03/11 04:23:59;;;;;;;2.27;1.70;;;-2.00;99.90;;;;;;5157497;27;20426;-80
2023/03/11 04:26:25;;;;;;;3.67;2.00;;;-2.00;99.90;;;;;;5138758;27;20125;-81
2023/03/11 04:28:51;;;;;;;5.80;2.10;;;-2.00;99.90;;;;;;5138754;27;20477;-80
2023/03/11 04:31:16;;;;;;;3.58;1.92;;;-1.40;99.90;;;;;;5139049;27;20189;-79
2023/03/11 04:33:42;;;;;;;2.80;1.80;;;-2.10;99.90;;;;;;5138689;27;20046;-78
2023/03/11 04:36:08;;;;;;;2.10;1.63;;;-1.80;99.90;;;;;;5138537;27;20047;-80
2023/03/11 04:38:34;;;;;;;4.38;1.80;;;-2.20;99.90;;;;;;5138451;27;20039;-81
2023/03/11 04:41:04;;;;;;;3.55;1.85;;;-2.30;99.90;;;;;;5157291;27;20043;-80
2023/03/11 04:43:30;;;;;;;2.78;1.75;;;-1.10;99.90;;;;;;5157255;27;20576;-82
2023/03/11 04:45:56;;;;;;;5.97;1.90;;;-2.40;99.90;;;;;;5157161;27;20133;-82
2023/03/11 04:48:23;;;;;;;4.50;1.90;;;-2.40;99.90;;;;;;5121788;27;20130;-82
2023/03/11 04:50:49;;;;;;;4.07;1.75;;;-2.50;99.90;;;;;;5121725;27;20050;-79
2023/03/11 04:53:14;;;;;;;4.20;1.80;;;-3.20;99.90;;;;;;5138990;27;20128;-80
2023/03/11 04:55:40;;;;;;;4.75;1.85;;;-2.50;99.90;;;;;;5138709;27;20466;-82
2023/03/11 04:58:06;;;;;;;2.20;1.52;;;-2.60;99.90;;;;;;5157179;27;20096;-82
2023/03/11 05:00:31;;;;;;;4.15;2.28;;;-2.60;99.90;;;;;;5157314;27;20454;-79
2023/03/11 05:02:57;;;;;;;4.10;1.98;;;-2.70;99.90;;;;;;5156553;27;20493;-81
2023/03/11 05:05:23;;;;;;;13.75;2.85;;;-2.70;99.90;;;;;;5121744;27;20046;-79
2023/03/11 05:07:48;;;;;;;2.35;1.70;;;-2.70;99.90;;;;;;5138373;27;20384;-80
2023/03/11 05:10:21;;;;;;;2.33;1.80;;;-2.70;99.90;;;;;;5156740;27;20050;-81
2023/03/11 05:12:47;;;;;;;4.78;1.77;;;-1.10;99.90;;;;;;5138871;27;20435;-80
2023/03/11 05:15:12;;;;;;;5.83;1.80;;;-2.60;99.90;;;;;;5156833;27;20038;-81
2023/03/11 05:17:38;;;;;;;4.20;2.00;;;-2.80;99.90;;;;;;5156800;27;20509;-81
2023/03/11 05:20:06;;;;;;;4.05;2.00;;;-2.80;99.90;;;;;;5138175;27;20125;-78
2023/03/11 05:22:32;;;;;;;3.60;1.80;;;-2.80;99.90;;;;;;5156369;27;20047;-77
2023/03/11 05:24:57;;;;;;;4.90;2.42;;;-2.80;99.90;;;;;;5156357;27;20064;-80
2023/03/11 05:27:23;;;;;;;3.25;1.90;;;-2.80;99.90;;;;;;5156249;27;20046;-79
2023/03/11 05:29:49;;;;;;;3.45;1.90;;;-2.80;99.90;;;;;;5156546;27;20043;-80
2023/03/11 05:32:14;;;;;;;4.00;2.00;;;-2.90;99.90;;;;;;5156235;27;20508;-81
2023/03/11 05:34:40;;;;;;;4.63;1.90;;;-2.90;99.90;;;;;;5137760;27;20046;-81
2023/03/11 05:37:06;;;;;;;8.45;1.80;;;-2.20;99.90;;;;;;5156090;27;20472;-77
2023/03/11 05:39:33;;;;;;;2.83;1.60;;;-2.90;99.90;;;;;;5156298;27;20133;-82
2023/03/11 05:41:59;;;;;;;4.03;1.52;;;-2.90;99.90;;;;;;5156108;27;20038;-78
2023/03/11 05:44:24;;;;;;;4.25;1.80;;;-2.90;99.90;;;;;;5155602;27;20039;-81
2023/03/11 05:46:50;;;;;;;5.37;1.70;;;-2.90;99.90;;;;;;5154930;27;20114;-79
2023/03/11 05:49:16;;;;;;;4.05;1.55;;;-3.00;99.90;;;;;;5155624;27;20049;-78
2023/03/11 05:51:41;;;;;;;4.03;1.67;;;-2.90;99.90;;;;;;5156154;27;20137;-79
2023/03/11 05:54:13;;;;;;;6.50;2.23;;;-3.00;99.90;;;;;;5155716;27;20484;-79
2023/03/11 05:56:43;;;;;;;3.97;1.60;;;-3.00;99.90;;;;;;5138373;27;20035;-77
2023/03/11 05:59:09;;;;;;;3.55;1.70;;;-2.10;99.90;;;;;;5137773;27;20090;-81
2023/03/11 06:01:35;;;;;;;6.07;1.80;;;-3.00;99.90;;;;;;5155572;27;20074;-81
2023/03/11 06:04:01;;;;;;;3.93;1.70;;;-3.00;99.90;;;;;;5155596;27;20038;-80
2023/03/11 06:06:26;;;;;;;4.13;2.10;;;-3.00;99.90;;;;;;5155304;27;20532;-78
2023/03/11 06:08:53;;;;;;;8.85;1.90;;;-2.80;99.90;;;;;;5155708;27;20042;-79
2023/03/11 06:11:19;;;;;;;;;;;-3.00;99.90;;;;;;5137581;27;20469;-80
2023/03/11 06:13:45;;;;;;;3.63;1.90;;;-3.10;99.90;;;;;;5155349;27;19919;-80
2023/03/11 06:16:11;;;;;;;5.40;1.95;;;-3.20;99.90;;;;;;5136988;27;20034;-82
2023/03/11 06:18:37;;;;;;;3.03;2.03;;;-3.10;99.90;;;;;;5155412;27;20042;-76
2023/03/11 06:21:03;;;;;;;3.63;2.00;;;-3.10;99.90;;;;;;5155345;27;20400;-75
2023/03/11 06:23:30;;;;;;;3.13;2.25;;;-3.10;99.90;;;;;;5155368;27;20047;-78
2023/03/11 06:26:03;;;;;;;5.05;2.20;;;-3.10;99.90;;;;;;5155160;27;20478;-79
2023/03/11 06:28:29;;;;;;;3.53;1.90;;;-3.10;99.90;;;;;;5155298;27;20082;-77
2023/03/11 06:30:57;;;;;;;6.32;2.40;;;-3.10;99.90;;;;;;5155388;27;20096;-77
2023/03/11 06:33:23;;;;;;;3.20;2.33;;;-3.10;99.90;;;;;;5155259;27;20053;-77
2023/03/11 06:35:59;;;;;;;2.97;1.80;;;-3.10;99.90;;;;;;5155141;27;20082;-79
2023/03/11 06:38:26;;;;;;;2.35;1.80;;;-3.10;99.90;;;;;;5155233;27;20437;-77
2023/03/11 06:40:52;;;;;;;4.13;2.10;;;-3.10;99.90;;;;;;5155197;27;20039;-78
2023/03/11 06:43:18;;;;;;;6.25;2.33;;;-2.90;99.90;;;;;;5136963;27;20046;-79
2023/03/11 06:45:43;;;;;;;5.23;2.07;;;-3.10;99.90;;;;;;5136751;27;20099;-77
2023/03/11 06:48:09;;;;;;;4.73;2.10;;;-2.10;99.90;;;;;;5136728;27;20046;-78
2023/03/11 06:50:35;;;;;;;6.10;2.00;;;-3.10;99.90;;;;;;5155029;27;20063;-77
2023/03/11 06:53:01;;;;;;;6.38;2.05;;;-3.00;99.90;;;;;;5154991;27;20035;-77
2023/03/11 06:55:27;;;;;;;6.38;2.20;;;-2.50;99.90;;;;;;5155313;27;20039;-78
2023/03/11 06:57:53;;;;;;;5.20;2.08;;;-3.00;99.90;;;;;;5156686;27;20130;-80
2023/03/11 07:00:19;;;;;;;3.22;2.22;;;-2.60;99.90;;;;;;5158787;27;20042;-77
2023/03/11 07:02:44;;;;;;;3.75;2.17;;;-2.80;99.90;;;;;;5158880;27;20121;-75
2023/03/11 07:05:11;;;;;;;2.85;1.98;;;-1.90;99.90;;;;;;5158775;27;20401;-77
2023/03/11 07:07:37;;;;;;;4.82;2.10;;;-2.70;99.90;;;;;;5158669;27;20427;-76
2023/03/11 07:10:03;;;;;;;5.35;1.75;;;-2.60;99.90;;;;;;5157720;27;20034;-77
2023/03/11 07:12:29;;;;;;;2.50;2.00;;;-2.50;99.90;;;;;;5158476;27;20493;-77
2023/03/11 07:14:55;;;;;;;5.85;2.10;;;-2.40;99.90;;;;;;5158613;27;20050;-81
2023/03/11 07:17:21;;;;;;;3.78;1.88;;;-2.40;99.90;;;;;;5140380;27;20490;-80
2023/03/11 07:19:47;;;;;;;5.50;2.08;;;-2.30;99.90;;;;;;5140257;27;20103;-75
2023/03/11 07:22:13;;;;;;;4.82;1.90;;;-2.20;99.90;;;;;;5140215;27;20039;-77
2023/03/11 07:24:39;;;;;;;2.88;1.85;;;-2.10;99.90;;;;;;5158777;27;20444;-77
2023/03/11 07:27:05;;;;;;;2.25;1.90;;;-2.00;99.90;;;;;;5158642;27;20117;-76
2023/03/11 07:29:30;;;;;;;6.47;2.00;;;-1.80;99.90;;;;;;5158167;27;20366;-76
2023/03/11 07:31:56;;;;;;;4.80;2.05;;;-1.70;99.90;;;;;;5157858;27;20494;-83
2023/03/11 07:34:21;;;;;;;5.15;1.92;;;-1.60;99.90;;;;;;5158180;27;20047;-78
2023/03/11 07:36:47;;;;;;;2.90;2.08;;;-1.30;99.90;;;;;;5158211;27;20045;-81
2023/03/11 07:39:15;;;;;;;5.63;2.08;;;1.20;99.90;;;;;;5122666;27;20039;-77
2023/03/11 07:41:42;;;;;;;5.63;2.03;;;-1.00;99.90;;;;;;5158065;27;20054;-76
2023/03/11 07:44:10;;;;;;;3.63;2.23;;;-0.80;99.90;;;;;;5157995;27;20043;-80
2023/03/11 07:46:35;;;;;;;9.93;2.10;;;-0.70;99.90;;;;;;5158006;27;20057;-77
2023/03/11 07:49:02;;;;;;;4.10;1.92;;;-0.50;99.90;;;;;;5157877;27;20129;-79
2023/03/11 07:51:30;;;;;;;5.82;2.33;;;-0.40;99.90;;;;;;5158186;27;20059;-79
2023/03/11 07:53:57;;;;;;;3.83;1.70;;;-0.20;99.90;;;;;;5157847;27;20111;-78
2023/03/11 07:56:24;;;;;;;;;;;-0.10;99.90;;;;;;5158268;27;20119;-76
2023/03/11 07:58:51;;;;;;;3.88;2.45;;;0.00;99.90;;;;;;5157781;27;19970;-78
2023/03/11 08:01:19;;;;;;;5.85;2.50;;;0.20;99.90;;;;;;5139402;27;20401;-79
2023/03/11 08:03:48;;;;;;;3.35;1.98;;;0.30;99.90;;;;;;5157734;27;20127;-80
2023/03/11 08:06:16;;;;;;;3.05;2.17;;;0.40;99.90;;;;;;5157960;27;20038;-78
2023/03/11 08:08:42;;;;;;;12.50;2.25;;;0.70;99.90;;;;;;5157123;27;20078;-77
2023/03/11 08:11:09;;;;;;;4.88;2.25;;;0.60;99.90;;;;;;5157376;27;20520;-79
2023/03/11 08:13:34;;;;;;;8.60;2.38;;;0.70;99.90;;;;;;5157372;27;20039;-79
2023/03/11 08:16:05;;;;;;;3.55;2.20;;;0.80;99.90;;;;;;5139294;27;20054;-78
2023/03/11 08:18:30;;;;;;;2.90;2.20;;;0.90;99.90;;;;;;5157368;27;20558;-79
2023/03/11 08:20:56;;;;;;;7.00;2.20;;;1.00;99.90;;;;;;5157379;27;20082;-79
2023/03/11 08:23:22;;;;;;;7.28;2.33;;;1.10;99.90;;;;;;5157314;27;20092;-79
2023/03/11 08:25:47;;;;;;;4.18;2.13;;;1.10;99.90;;;;;;5157161;27;20034;-78
2023/03/11 08:28:13;;;;;;;3.75;2.05;;;1.20;99.90;;;;;;5157196;27;20046;-78
2023/03/11 08:30:39;;;;;;;4.07;1.80;;;1.30;99.90;;;;;;5157053;27;20074;-79
2023/03/11 08:33:04;;;;;;;2.85;1.98;;;1.30;99.90;;;;;;5157538;27;20092;-79
2023/03/11 08:35:31;;;;;;;7.78;2.20;;;0.50;99.90;;;;;;5157019;27;20046;-77
2023/03/11 08:37:56;;;;;;;6.03;2.33;;;1.40;99.90;;;;;;5156980;27;20099;-77
2023/03/11 08:40:22;;;;;;;3.78;2.22;;;1.50;99.90;;;;;;5138482;27;20404;-79
2023/03/11 08:42:48;;;;;;;6.80;2.10;;;1.60;99.90;;;;;;5121480;27;20054;-79
2023/03/11 08:45:14;;;;;;;7.38;1.98;;;1.70;99.90;;;;;;5156754;27;20097;-80
2023/03/11 08:47:40;;;;;;;4.90;1.98;;;1.80;99.90;;;;;;5156862;27;20042;-76
2023/03/11 08:50:10;;;;;;;4.15;1.90;;;1.90;99.90;;;;;;5156544;27;20122;-77
2023/03/11 08:52:36;;;;;;;4.65;1.92;;;2.10;99.90;;;;;;5156733;27;20054;-78
2023/03/11 08:55:03;;;;;;;5.97;1.90;;;2.10;99.90;;;;;;5156107;27;20042;-77
2023/03/11 08:57:30;;;;;;;6.80;2.03;;;2.20;99.90;;;;;;5156604;27;20379;-79
2023/03/11 08:59:57;;;;;;;7.20;2.22;;;2.30;99.90;;;;;;5156533;27;20073;-82
2023/03/11 09:02:25;;;;;;;;;;;2.40;99.90;;;;;;5156959;27;20046;-82
2023/03/11 09:04:51;;;;;;;3.47;2.00;;;2.40;99.90;;;;;;5156303;27;20361;-80
2023/03/11 09:07:17;;;;;;;5.50;2.30;;;2.50;99.90;;;;;;5137924;27;20046;-76
2023/03/11 09:09:43;;;;;;;5.55;2.00;;;2.60;99.90;;;;;;5156160;27;20051;-81
2023/03/11 09:12:12;;;;;;;9.40;1.90;;;2.70;99.90;;;;;;5156322;27;20039;-80
2023/03/11 09:14:42;;;;;;;6.22;1.77;;;2.80;99.90;;;;;;5137673;27;20042;-78
2023/03/11 09:17:10;;;;;;;5.20;2.35;;;2.80;99.90;;;;;;5156373;27;20099;-77
2023/03/11 09:19:37;;;;;;;5.50;2.15;;;2.90;99.90;;;;;;5156083;27;20470;-77
2023/03/11 09:22:04;;;;;;;9.55;2.30;;;2.90;99.90;;;;;;5155237;27;20398;-76
2023/03/11 09:24:32;;;;;;;4.47;1.95;;;3.10;99.90;;;;;;5156255;27;20039;-79
2023/03/11 09:26:58;;;;;;;4.82;2.28;;;3.10;99.90;;;;;;5136100;27;20042;-77
2023/03/11 09:29:24;;;;;;;6.18;1.88;;;3.10;99.90;;;;;;5154201;27;20565;-78
2023/03/11 09:31:49;;;;;;;4.95;1.80;;;3.20;99.90;;;;;;5152856;27;20042;-79
2023/03/11 09:34:15;;;;;;;3.05;1.98;;;3.30;99.90;;;;;;5152086;27;20103;-78
2023/03/11 09:36:41;;;;;;;6.15;2.92;;;3.30;99.90;;;;;;5152932;27;20027;-77
2023/03/11 09:39:07;;;;;;;13.90;8.98;;;3.40;99.90;;;;;;5153467;27;20546;-78
2023/03/11 09:41:54;;;;;;;7.32;2.75;;;3.40;99.90;;;;;;5155908;27;20054;-78
2023/03/11 09:44:22;;;;;;;4.43;2.40;;;3.50;99.90;;;;;;5154509;27;20042;-78
2023/03/11 09:47:25;;;;;;;3.35;2.00;;;3.60;99.90;;;;;;5155684;27;20066;-78
2023/03/11 09:49:56;;;;;;;3.90;1.90;;;3.70;99.90;;;;;;5155405;27;20034;-79
2023/03/11 09:52:32;;;;;;;2.88;1.63;;;3.80;99.90;;;;;;5155616;27;20069;-78
2023/03/11 09:55:01;;;;;;;4.20;2.38;;;3.90;99.90;;;;;;5156117;27;20038;-79
2023/03/11 09:57:35;;;;;;;7.05;2.08;;;4.00;99.90;;;;;;5155583;27;20065;-77
2023/03/11 10:00:04;;;;;;;5.43;2.38;;;4.10;99.90;;;;;;5155681;27;20467;-77
2023/03/11 10:02:31;;;;;;;5.65;2.00;;;4.10;99.90;;;;;;5155418;27;20043;-78
2023/03/11 10:05:08;;;;;;;8.95;2.28;;;4.20;99.90;;;;;;5155302;27;20083;-77
2023/03/11 10:07:40;;;;;;;2.58;1.70;;;4.30;99.90;;;;;;5156062;27;20042;-77
2023/03/11 10:10:11;;;;;;;6.35;2.50;;;4.30;99.90;;;;;;5155377;27;20042;-78
2023/03/11 10:12:51;;;;;;;3.10;1.83;;;4.30;99.90;;;;;;5155434;27;20078;-78
2023/03/11 10:15:26;;;;;;;5.20;2.28;;;4.40;99.90;;;;;;5155450;27;20098;-78
2023/03/11 10:18:09;;;;;;;4.15;1.88;;;4.30;99.90;;;;;;5155842;27;20043;-78
2023/03/11 10:20:47;;;;;;;5.75;2.17;;;4.40;99.90;;;;;;5137137;27;20382;-78
2023/03/11 10:23:27;;;;;;;5.68;2.67;;;4.50;99.90;;;;;;5155567;27;20050;-78
2023/03/11 10:26:04;;;;;;;5.20;2.25;;;4.50;99.90;;;;;;5155782;27;20059;-78
2023/03/11 10:28:39;;;;;;;8.20;1.92;;;4.50;99.90;;;;;;5155608;27;20043;-78
2023/03/11 10:31:28;;;;;;;4.63;1.63;;;4.50;99.90;;;;;;5155530;27;20091;-78
2023/03/11 10:34:22;;;;;;;4.95;2.00;;;4.50;99.90;;;;;;5158849;27;20047;-78
2023/03/11 10:37:15;;;;;;;5.85;1.75;;;4.60;99.90;;;;;;5158900;27;20050;-80
2023/03/11 10:39:41;;;;;;;5.32;1.75;;;4.60;99.90;;;;;;5159494;27;20038;-79
2023/03/11 10:42:14;;;;;;;5.13;2.00;;;4.70;99.90;;;;;;5159257;27;20098;-79
2023/03/11 10:44:41;;;;;;;4.35;1.90;;;4.70;99.90;;;;;;5159266;27;20042;-79
2023/03/11 10:47:18;;;;;;;5.55;1.70;;;4.70;99.90;;;;;;5159112;27;20042;-79
2023/03/11 10:49:44;;;;;;;6.10;1.98;;;4.80;99.90;;;;;;5158855;27;20057;-79
2023/03/11 10:52:10;;;;;;;5.43;1.60;;;4.90;99.90;;;;;;5159443;27;20134;-79
2023/03/11 10:54:44;;;;;;;6.97;2.20;;;4.90;99.90;;;;;;5159204;27;20088;-79
2023/03/11 10:57:32;;;;;;;5.63;1.83;;;5.80;99.90;;;;;;5159041;27;20035;-79
2023/03/11 10:59:59;;;;;;;4.10;1.98;;;5.00;99.90;;;;;;5159305;27;20046;-79
2023/03/11 11:02:50;;;;;;;3.83;1.75;;;5.10;99.90;;;;;;5158745;27;20367;-79
2023/03/11 11:05:21;;;;;;;3.58;1.70;;;5.10;99.90;;;;;;5144598;27;20097;-79
2023/03/11 11:07:49;;;;;;;2.85;1.67;;;5.20;99.90;;;;;;5158691;27;20057;-79
2023/03/11 11:10:22;;;;;;;5.63;1.83;;;5.20;99.90;;;;;;5158415;27;20482;-79
2023/03/11 11:13:15;;;;;;;2.55;1.45;;;5.30;99.90;;;;;;5159208;27;20107;-79
2023/03/11 11:15:49;;;;;;;6.50;1.80;;;5.40;99.90;;;;;;5158675;27;20045;-80
2023/03/11 11:18:23;;;;;;;2.88;1.60;;;5.50;99.90;;;;;;5159173;27;20055;-79
2023/03/11 11:20:57;;;;;;;6.88;1.70;;;5.50;99.90;;;;;;5159027;27;20050;-80
2023/03/11 11:23:25;;;;;;;5.32;2.08;;;5.60;99.90;;;;;;5158525;27;20423;-80
2023/03/11 11:26:03;;;;;;;3.80;1.80;;;5.60;99.90;;;;;;5158069;27;20481;-80
2023/03/11 11:28:30;;;;;;;3.28;1.40;;;5.70;99.90;;;;;;5158450;27;20081;-80
2023/03/11 11:31:02;;;;;;;7.90;1.88;;;5.80;99.90;;;;;;5140051;27;20079;-80
2023/03/11 11:33:37;;;;;;;4.80;1.42;;;5.90;99.90;;;;;;5140552;27;20510;-80
2023/03/11 11:36:04;;;;;;;6.25;1.63;;;6.00;99.90;;;;;;5140364;27;20063;-80
2023/03/11 11:38:31;;;;;;;3.38;1.60;;;5.90;99.90;;;;;;5139932;27;20129;-80
2023/03/11 11:41:01;;;;;;;4.60;1.35;;;6.00;99.90;;;;;;5158130;27;20042;-80
2023/03/11 11:43:50;;;;;;;6.97;1.70;;;6.00;99.90;;;;;;5157769;27;20085;-80
2023/03/11 11:46:24;;;;;;;7.18;1.42;;;6.00;99.90;;;;;;5158437;27;20146;-80
2023/03/11 11:49:10;;;;;;;3.50;1.50;;;6.20;99.90;;;;;;5158200;27;20043;-80
2023/03/11 11:51:50;;;;;;;4.72;2.17;;;6.30;99.90;;;;;;5158023;27;20071;-80
2023/03/11 11:54:26;;;;;;;6.15;1.48;;;6.50;99.90;;;;;;5158359;27;20058;-80
2023/03/11 11:56:51;;;;;;;4.40;1.42;;;6.60;99.90;;;;;;5157983;27;20090;-80
2023/03/11 11:59:23;;;;;;;3.70;1.23;;;6.50;99.90;;;;;;5139492;27;20042;-80
2023/03/11 12:02:07;;;;;;;4.78;1.38;;;6.60;99.90;;;;;;5157896;27;20078;-80
2023/03/11 12:05:06;;;;;;;4.43;1.20;;;6.60;99.90;;;;;;5105178;27;20038;-80
2023/03/11 12:07:38;;;;;;;3.67;1.30;;;6.60;99.90;;;;;;5157703;27;20047;-81
2023/03/11 12:10:28;;;;;;;2.70;1.13;;;6.50;99.90;;;;;;5139467;27;20412;-80
2023/03/11 12:12:54;;;;;;;2.65;1.20;;;6.50;99.90;;;;;;5139528;27;20046;-80
2023/03/11 12:15:24;;;;;;;2.47;1.17;;;6.50;99.90;;;;;;5157529;27;20122;-81
2023/03/11 12:17:53;;;;;;;7.97;1.30;;;6.40;99.90;;;;;;5138768;27;20501;-80
2023/03/11 12:20:34;;;;;;;1.35;1.02;;;6.60;99.90;;;;;;5157952;27;20034;-81
2023/03/11 12:23:16;;;;;;;6.63;1.10;;;6.60;99.90;;;;;;5158048;27;20397;-80
2023/03/11 12:26:10;;;;;;;1.52;1.05;;;6.50;99.90;;;;;;5138693;27;20046;-81
2023/03/11 12:28:52;;;;;;;2.28;1.10;;;6.30;99.90;;;;;;5157370;27;20073;-81
2023/03/11 12:31:18;;;;;;;6.85;1.40;;;6.20;99.90;;;;;;5157049;27;20049;-80
2023/03/11 12:33:54;;;;;;;3.80;1.17;;;6.10;99.90;;;;;;5157106;27;20045;-80
2023/03/11 12:36:33;;;;;;;1.35;1.00;;;6.10;99.90;;;;;;5157035;27;20038;-80
2023/03/11 12:39:04;;;;;;;1.45;1.05;;;6.20;99.90;;;;;;5157145;27;20053;-80
2023/03/11 12:41:37;;;;;;;2.83;1.00;;;6.30;99.90;;;;;;5156972;27;20049;-80
2023/03/11 12:44:20;;;;;;;1.98;1.20;;;6.30;99.90;;;;;;5157387;27;20107;-80
2023/03/11 12:46:58;;;;;;;4.00;1.10;;;6.30;99.90;;;;;;5138499;27;20489;-79
2023/03/11 12:49:24;;;;;;;;;;;6.40;99.90;;;;;;5138749;27;20042;-80
2023/03/11 12:52:07;;;;;;;2.05;1.02;;;6.40;99.90;;;;;;5156783;27;19919;-79
2023/03/11 12:54:35;;;;;;;2.10;1.10;;;6.30;99.90;;;;;;5157328;27;20129;-80
2023/03/11 12:57:19;;;;;;;3.13;1.20;;;6.30;99.90;;;;;;5121102;27;20046;-79
2023/03/11 13:00:06;;;;;;;3.53;1.10;;;6.50;99.90;;;;;;5156635;27;20039;-80
2023/03/11 13:02:57;;;;;;;5.57;1.30;;;6.50;99.90;;;;;;5156580;27;20046;-81